createdAt,value
2019-02-18T00:00:34.333Z,985.77
2019-02-18T00:01:34.321Z,985.76
2019-02-18T00:02:34.312Z,985.81
2019-02-18T00:03:34.306Z,985.75
2019-02-18T00:04:34.297Z,985.75
2019-02-18T00:05:34.431Z,985.72
2019-02-18T00:06:34.270Z,985.77
2019-02-18T00:07:34.262Z,985.79
2019-02-18T00:08:34.266Z,985.84
2019-02-18T00:09:34.293Z,985.80
2019-02-18T00:10:34.228Z,985.79
2019-02-18T00:11:34.238Z,985.78
2019-02-18T00:12:34.209Z,985.78
2019-02-18T00:13:34.197Z,985.77
2019-02-18T00:14:34.184Z,985.84
2019-02-18T00:15:34.177Z,985.82
2019-02-18T00:16:34.167Z,985.84
2019-02-18T00:17:34.177Z,985.85
2019-02-18T00:18:34.144Z,985.81
2019-02-18T00:19:34.138Z,985.87
2019-02-18T00:20:34.125Z,985.85
2019-02-18T00:21:34.119Z,985.76
2019-02-18T00:22:34.106Z,985.79
2019-02-18T00:23:34.109Z,985.85
2019-02-18T00:24:34.087Z,985.88
2019-02-18T00:25:34.077Z,985.81
2019-02-18T00:26:34.064Z,985.81
2019-02-18T00:27:34.055Z,985.87
2019-02-18T00:28:34.046Z,985.83
2019-02-18T00:29:34.051Z,985.85
2019-02-18T00:30:34.051Z,985.76
2019-02-18T00:31:34.019Z,985.84
2019-02-18T00:32:34.006Z,985.78
2019-02-18T00:33:33.990Z,985.76
2019-02-18T00:34:33.987Z,985.74
2019-02-18T00:35:33.989Z,985.76
2019-02-18T00:36:33.962Z,985.78
2019-02-18T00:37:33.954Z,985.80
2019-02-18T00:38:33.942Z,985.80
2019-02-18T00:39:33.932Z,985.82
2019-02-18T00:40:33.922Z,985.86
2019-02-18T00:41:33.926Z,985.79
2019-02-18T00:42:33.903Z,985.79
2019-02-18T00:43:33.890Z,985.79
2019-02-18T00:44:33.881Z,985.78
2019-02-18T00:45:33.872Z,985.85
2019-02-18T00:46:33.864Z,985.82
2019-02-18T00:47:33.862Z,985.78
2019-02-18T00:48:33.837Z,985.77
2019-02-18T00:49:33.830Z,985.79
2019-02-18T00:50:33.818Z,985.75
2019-02-18T00:51:33.808Z,985.79
2019-02-18T00:52:33.801Z,985.83
2019-02-18T00:53:33.801Z,985.78
2019-02-18T00:54:33.779Z,985.89
2019-02-18T00:55:33.765Z,985.86
2019-02-18T00:56:33.753Z,985.93
2019-02-18T00:57:33.750Z,985.82
2019-02-18T00:58:33.737Z,985.86
2019-02-18T00:59:33.741Z,985.76
2019-02-18T01:00:33.717Z,985.85
2019-02-18T01:01:33.706Z,985.86
2019-02-18T01:02:33.695Z,985.86
2019-02-18T01:03:33.685Z,985.85
2019-02-18T01:04:33.675Z,985.86
2019-02-18T01:05:33.683Z,985.82
2019-02-18T01:06:33.651Z,985.91
2019-02-18T01:07:35.144Z,985.86
2019-02-18T01:08:33.634Z,985.87
2019-02-18T01:09:33.624Z,985.80
2019-02-18T01:10:33.612Z,985.80
2019-02-18T01:11:33.625Z,985.83
2019-02-18T01:12:33.591Z,985.84
2019-02-18T01:13:33.585Z,985.86
2019-02-18T01:14:33.574Z,985.81
2019-02-18T01:15:33.562Z,985.81
2019-02-18T01:16:33.554Z,985.82
2019-02-18T01:17:33.561Z,985.79
2019-02-18T01:18:33.527Z,985.84
2019-02-18T01:19:33.527Z,985.83
2019-02-18T01:20:33.508Z,985.84
2019-02-18T01:21:33.500Z,985.86
2019-02-18T01:22:33.490Z,985.93
2019-02-18T01:23:33.498Z,985.92
2019-02-18T01:24:33.464Z,985.88
2019-02-18T01:25:33.463Z,985.82
2019-02-18T01:26:33.447Z,985.87
2019-02-18T01:27:33.434Z,985.89
2019-02-18T01:28:33.424Z,985.83
2019-02-18T01:29:33.431Z,985.90
2019-02-18T01:30:33.405Z,985.87
2019-02-18T01:31:33.396Z,985.95
2019-02-18T01:32:33.380Z,985.87
2019-02-18T01:33:33.377Z,985.84
2019-02-18T01:34:33.360Z,985.83
2019-02-18T01:35:33.369Z,985.73
2019-02-18T01:36:33.343Z,985.88
2019-02-18T01:37:33.334Z,985.90
2019-02-18T01:38:33.323Z,985.89
2019-02-18T01:39:33.313Z,985.84
2019-02-18T01:40:33.302Z,985.88
2019-02-18T01:41:33.304Z,985.80
2019-02-18T01:42:33.278Z,985.81
2019-02-18T01:43:33.268Z,985.86
2019-02-18T01:44:33.256Z,985.84
2019-02-18T01:45:33.249Z,985.83
2019-02-18T01:46:33.236Z,985.85
2019-02-18T01:47:33.249Z,985.79
2019-02-18T01:48:33.217Z,985.87
2019-02-18T01:49:33.208Z,985.78
2019-02-18T01:50:33.201Z,985.81
2019-02-18T01:51:33.232Z,985.81
2019-02-18T01:52:33.175Z,985.86
2019-02-18T01:53:33.186Z,985.85
2019-02-18T01:54:33.153Z,985.83
2019-02-18T01:55:33.145Z,985.83
2019-02-18T01:56:33.134Z,985.87
2019-02-18T01:57:33.127Z,985.82
2019-02-18T01:58:33.112Z,985.83
2019-02-18T01:59:33.121Z,985.91
2019-02-18T02:00:33.092Z,985.78
2019-02-18T02:01:33.083Z,985.80
2019-02-18T02:02:33.076Z,985.81
2019-02-18T02:03:33.060Z,985.75
2019-02-18T02:04:33.054Z,985.80
2019-02-18T02:05:33.060Z,985.76
2019-02-18T02:06:33.029Z,985.84
2019-02-18T02:07:33.020Z,985.83
2019-02-18T02:08:33.010Z,985.80
2019-02-18T02:09:32.996Z,985.85
2019-02-18T02:10:32.987Z,985.81
2019-02-18T02:11:32.993Z,985.83
2019-02-18T02:12:32.967Z,985.86
2019-02-18T02:13:32.955Z,985.84
2019-02-18T02:14:32.945Z,985.83
2019-02-18T02:15:32.936Z,985.86
2019-02-18T02:16:32.958Z,985.84
2019-02-18T02:17:32.929Z,985.81
2019-02-18T02:18:32.904Z,985.79
2019-02-18T02:19:32.894Z,985.79
2019-02-18T02:20:32.881Z,985.76
2019-02-18T02:21:32.869Z,985.74
2019-02-18T02:22:32.862Z,985.76
2019-02-18T02:23:32.871Z,985.77
2019-02-18T02:24:32.840Z,985.72
2019-02-18T02:25:32.827Z,985.72
2019-02-18T02:26:32.820Z,985.75
2019-02-18T02:27:32.811Z,985.71
2019-02-18T02:28:32.798Z,985.71
2019-02-18T02:29:32.805Z,985.74
2019-02-18T02:30:32.780Z,985.71
2019-02-18T02:31:32.765Z,985.69
2019-02-18T02:32:32.760Z,985.74
2019-02-18T02:33:32.747Z,985.72
2019-02-18T02:34:32.735Z,985.75
2019-02-18T02:35:32.744Z,985.77
2019-02-18T02:36:32.717Z,985.73
2019-02-18T02:37:32.705Z,985.74
2019-02-18T02:38:32.693Z,985.76
2019-02-18T02:39:32.685Z,985.71
2019-02-18T02:40:32.676Z,985.73
2019-02-18T02:41:32.682Z,985.70
2019-02-18T02:42:32.652Z,985.73
2019-02-18T02:43:32.640Z,985.71
2019-02-18T02:44:32.663Z,985.69
2019-02-18T02:45:32.623Z,985.77
2019-02-18T02:46:32.614Z,985.70
2019-02-18T02:47:32.620Z,985.70
2019-02-18T02:48:32.591Z,985.66
2019-02-18T02:49:32.593Z,985.71
2019-02-18T02:50:32.570Z,985.73
2019-02-18T02:51:32.559Z,985.61
2019-02-18T02:52:32.546Z,985.62
2019-02-18T02:53:33.275Z,985.63
2019-02-18T02:54:32.529Z,985.62
2019-02-18T02:55:32.517Z,985.64
2019-02-18T02:56:32.505Z,985.61
2019-02-18T02:57:32.496Z,985.63
2019-02-18T02:58:32.489Z,985.65
2019-02-18T02:59:32.509Z,985.61
2019-02-18T03:00:32.460Z,985.61
2019-02-18T03:01:32.454Z,985.59
2019-02-18T03:02:32.444Z,985.58
2019-02-18T03:03:32.437Z,985.58
2019-02-18T03:04:32.423Z,985.62
2019-02-18T03:05:32.429Z,985.60
2019-02-18T03:06:32.404Z,985.54
2019-02-18T03:07:32.398Z,985.55
2019-02-18T03:08:32.383Z,985.55
2019-02-18T03:09:32.383Z,985.55
2019-02-18T03:10:32.365Z,985.53
2019-02-18T03:11:32.368Z,985.58
2019-02-18T03:12:32.341Z,985.51
2019-02-18T03:13:32.329Z,985.52
2019-02-18T03:14:32.319Z,985.53
2019-02-18T03:15:32.312Z,985.51
2019-02-18T03:16:32.299Z,985.55
2019-02-18T03:17:32.302Z,985.53
2019-02-18T03:18:32.277Z,985.54
2019-02-18T03:19:32.267Z,985.51
2019-02-18T03:20:32.256Z,985.42
2019-02-18T03:21:32.246Z,985.51
2019-02-18T03:22:32.238Z,985.39
2019-02-18T03:23:32.247Z,985.55
2019-02-18T03:24:32.216Z,985.44
2019-02-18T03:25:32.203Z,985.52
2019-02-18T03:26:32.200Z,985.52
2019-02-18T03:27:32.192Z,985.51
2019-02-18T03:28:32.174Z,985.53
2019-02-18T03:29:32.187Z,985.48
2019-02-18T03:30:32.150Z,985.50
2019-02-18T03:31:32.144Z,985.53
2019-02-18T03:32:32.132Z,985.51
2019-02-18T03:33:32.123Z,985.50
2019-02-18T03:34:32.109Z,985.46
2019-02-18T03:35:32.108Z,985.45
2019-02-18T03:36:32.090Z,985.41
2019-02-18T03:37:32.080Z,985.43
2019-02-18T03:38:32.202Z,985.42
2019-02-18T03:39:32.234Z,985.44
2019-02-18T03:40:32.049Z,985.49
2019-02-18T03:41:32.061Z,985.49
2019-02-18T03:42:32.142Z,985.48
2019-02-18T03:43:32.100Z,985.47
2019-02-18T03:44:32.003Z,985.51
2019-02-18T03:45:32.005Z,985.50
2019-02-18T03:46:31.983Z,985.47
2019-02-18T03:47:31.995Z,985.46
2019-02-18T03:48:31.965Z,985.48
2019-02-18T03:49:31.955Z,985.47
2019-02-18T03:50:31.946Z,985.42
2019-02-18T03:51:31.932Z,985.40
2019-02-18T03:52:31.922Z,985.40
2019-02-18T03:53:31.925Z,985.41
2019-02-18T03:54:31.900Z,985.40
2019-02-18T03:55:32.008Z,985.46
2019-02-18T03:56:31.883Z,985.40
2019-02-18T03:57:31.871Z,985.39
2019-02-18T03:58:31.870Z,985.46
2019-02-18T03:59:31.871Z,985.47
2019-02-18T04:00:31.839Z,985.46
2019-02-18T04:01:31.830Z,985.50
2019-02-18T04:02:31.820Z,985.46
2019-02-18T04:03:31.808Z,985.45
2019-02-18T04:04:31.797Z,985.39
2019-02-18T04:05:31.805Z,985.49
2019-02-18T04:06:31.778Z,985.49
2019-02-18T04:07:31.765Z,985.53
2019-02-18T04:08:42.026Z,985.48
2019-02-18T04:09:32.751Z,985.43
2019-02-18T04:10:31.734Z,985.49
2019-02-18T04:11:31.735Z,985.44
2019-02-18T04:12:31.713Z,985.46
2019-02-18T04:13:31.707Z,985.44
2019-02-18T04:14:31.698Z,985.45
2019-02-18T04:15:31.684Z,985.51
2019-02-18T04:16:31.674Z,985.52
2019-02-18T04:17:31.674Z,985.49
2019-02-18T04:18:31.652Z,985.45
2019-02-18T04:19:31.644Z,985.47
2019-02-18T04:20:31.638Z,985.42
2019-02-18T04:21:31.637Z,985.48
2019-02-18T04:22:31.618Z,985.44
2019-02-18T04:23:31.625Z,985.50
2019-02-18T04:24:31.594Z,985.51
2019-02-18T04:25:31.580Z,985.46
2019-02-18T04:26:31.570Z,985.45
2019-02-18T04:27:31.560Z,985.44
2019-02-18T04:28:31.552Z,985.39
2019-02-18T04:29:31.560Z,985.46
2019-02-18T04:30:31.527Z,985.43
2019-02-18T04:31:31.536Z,985.42
2019-02-18T04:32:31.508Z,985.38
2019-02-18T04:33:31.495Z,985.38
2019-02-18T04:34:31.486Z,985.32
2019-02-18T04:35:31.492Z,985.30
2019-02-18T04:36:31.466Z,985.30
2019-02-18T04:37:31.454Z,985.32
2019-02-18T04:38:31.444Z,985.33
2019-02-18T04:39:31.431Z,985.28
2019-02-18T04:40:31.427Z,985.32
2019-02-18T04:41:31.434Z,985.25
2019-02-18T04:42:31.402Z,985.28
2019-02-18T04:43:31.396Z,985.28
2019-02-18T04:44:31.383Z,985.27
2019-02-18T04:45:31.373Z,985.30
2019-02-18T04:46:31.372Z,985.32
2019-02-18T04:47:31.368Z,985.26
2019-02-18T04:48:31.341Z,985.29
2019-02-18T04:49:31.333Z,985.24
2019-02-18T04:50:31.321Z,985.29
2019-02-18T04:51:31.313Z,985.29
2019-02-18T04:52:31.297Z,985.26
2019-02-18T04:53:31.307Z,985.26
2019-02-18T04:54:31.282Z,985.34
2019-02-18T04:55:31.269Z,985.25
2019-02-18T04:56:31.261Z,985.28
2019-02-18T04:57:31.619Z,985.18
2019-02-18T04:58:31.239Z,985.21
2019-02-18T04:59:31.241Z,985.20
2019-02-18T05:00:31.217Z,985.20
2019-02-18T05:01:31.204Z,985.22
2019-02-18T05:02:31.197Z,985.22
2019-02-18T05:03:31.187Z,985.15
2019-02-18T05:04:31.180Z,985.21
2019-02-18T05:05:31.185Z,985.15
2019-02-18T05:06:31.164Z,985.21
2019-02-18T05:07:31.149Z,985.33
2019-02-18T05:08:31.137Z,985.28
2019-02-18T05:09:31.122Z,985.21
2019-02-18T05:10:31.115Z,985.23
2019-02-18T05:11:31.125Z,985.18
2019-02-18T05:12:31.096Z,985.20
2019-02-18T05:13:31.084Z,985.18
2019-02-18T05:14:31.074Z,985.19
2019-02-18T05:15:31.064Z,985.23
2019-02-18T05:16:31.054Z,985.18
2019-02-18T05:17:31.058Z,985.10
2019-02-18T05:18:31.032Z,985.12
2019-02-18T05:19:31.023Z,985.15
2019-02-18T05:20:31.013Z,985.24
2019-02-18T05:21:31.124Z,985.18
2019-02-18T05:22:30.991Z,985.27
2019-02-18T05:23:30.997Z,985.16
2019-02-18T05:24:30.978Z,985.20
2019-02-18T05:25:30.959Z,985.16
2019-02-18T05:26:30.948Z,985.19
2019-02-18T05:27:33.237Z,985.17
2019-02-18T05:28:30.930Z,985.23
2019-02-18T05:29:30.934Z,985.13
2019-02-18T05:30:30.911Z,985.21
2019-02-18T05:31:30.899Z,985.21
2019-02-18T05:32:30.886Z,985.18
2019-02-18T05:33:30.879Z,985.19
2019-02-18T05:34:30.872Z,985.23
2019-02-18T05:35:30.908Z,985.21
2019-02-18T05:36:30.847Z,985.11
2019-02-18T05:37:30.838Z,985.19
2019-02-18T05:38:30.831Z,985.11
2019-02-18T05:39:30.836Z,985.17
2019-02-18T05:40:30.806Z,985.13
2019-02-18T05:41:31.346Z,985.13
2019-02-18T05:42:30.786Z,985.17
2019-02-18T05:43:30.780Z,985.04
2019-02-18T05:44:30.772Z,985.08
2019-02-18T05:45:30.762Z,985.00
2019-02-18T05:46:30.747Z,985.12
2019-02-18T05:47:30.751Z,985.02
2019-02-18T05:48:30.723Z,985.07
2019-02-18T05:49:30.717Z,985.03
2019-02-18T05:50:30.719Z,985.10
2019-02-18T05:51:30.693Z,985.08
2019-02-18T05:52:30.685Z,984.99
2019-02-18T05:53:30.687Z,985.06
2019-02-18T05:54:30.665Z,985.02
2019-02-18T05:55:31.127Z,985.01
2019-02-18T05:56:30.645Z,985.04
2019-02-18T05:57:30.634Z,984.96
2019-02-18T05:58:30.623Z,985.06
2019-02-18T05:59:30.630Z,984.95
2019-02-18T06:00:30.601Z,984.93
2019-02-18T06:01:30.594Z,984.91
2019-02-18T06:02:30.582Z,984.90
2019-02-18T06:03:30.573Z,984.98
2019-02-18T06:04:30.563Z,984.93
2019-02-18T06:05:30.567Z,984.96
2019-02-18T06:06:30.540Z,985.03
2019-02-18T06:07:30.530Z,984.98
2019-02-18T06:08:30.521Z,985.02
2019-02-18T06:09:30.577Z,984.95
2019-02-18T06:10:30.507Z,984.98
2019-02-18T06:11:30.508Z,984.94
2019-02-18T06:12:37.524Z,984.90
2019-02-18T06:13:30.470Z,984.96
2019-02-18T06:14:30.467Z,984.97
2019-02-18T06:15:30.487Z,984.89
2019-02-18T06:16:30.454Z,985.00
2019-02-18T06:17:30.489Z,985.03
2019-02-18T06:18:30.476Z,984.97
2019-02-18T06:19:30.415Z,985.05
2019-02-18T06:20:30.463Z,985.03
2019-02-18T06:21:30.391Z,985.03
2019-02-18T06:22:30.412Z,984.98
2019-02-18T06:23:30.591Z,985.05
2019-02-18T06:24:30.379Z,984.97
2019-02-18T06:25:30.362Z,984.98
2019-02-18T06:26:30.345Z,985.00
2019-02-18T06:27:30.330Z,985.03
2019-02-18T06:28:30.322Z,984.97
2019-02-18T06:29:30.345Z,985.01
2019-02-18T06:30:30.311Z,984.98
2019-02-18T06:31:30.285Z,984.98
2019-02-18T06:32:30.283Z,985.02
2019-02-18T06:33:30.279Z,985.02
2019-02-18T06:34:30.264Z,985.07
2019-02-18T06:35:30.297Z,985.05
2019-02-18T06:36:30.280Z,984.93
2019-02-18T06:37:30.401Z,985.02
2019-02-18T06:38:30.263Z,985.00
2019-02-18T06:39:40.935Z,984.94
2019-02-18T06:40:31.206Z,985.02
2019-02-18T06:41:30.186Z,985.00
2019-02-18T06:42:30.183Z,985.03
2019-02-18T06:43:30.170Z,985.06
2019-02-18T06:44:30.167Z,985.04
2019-02-18T06:45:30.154Z,985.03
2019-02-18T06:46:30.174Z,985.06
2019-02-18T06:47:30.123Z,985.14
2019-02-18T06:48:30.107Z,985.09
2019-02-18T06:49:30.100Z,985.10
2019-02-18T06:50:30.097Z,985.15
2019-02-18T06:51:30.087Z,985.10
2019-02-18T06:52:30.107Z,985.13
2019-02-18T06:53:30.078Z,985.09
2019-02-18T06:54:30.052Z,985.11
2019-02-18T06:55:30.053Z,985.08
2019-02-18T06:56:30.061Z,985.05
2019-02-18T06:57:30.035Z,985.07
2019-02-18T06:58:30.033Z,985.06
2019-02-18T06:59:30.004Z,985.04
2019-02-18T07:00:29.985Z,985.06
2019-02-18T07:01:30.269Z,985.10
2019-02-18T07:02:29.969Z,985.06
2019-02-18T07:03:29.971Z,985.12
2019-02-18T07:04:29.978Z,985.11
2019-02-18T07:05:29.950Z,985.03
2019-02-18T07:06:29.947Z,985.09
2019-02-18T07:07:29.919Z,985.05
2019-02-18T07:08:29.904Z,985.08
2019-02-18T07:09:29.905Z,985.04
2019-02-18T07:10:29.910Z,985.05
2019-02-18T07:11:29.875Z,985.11
2019-02-18T07:12:29.875Z,985.14
2019-02-18T07:13:29.853Z,985.06
2019-02-18T07:14:29.849Z,985.09
2019-02-18T07:15:29.834Z,985.16
2019-02-18T07:16:29.843Z,985.05
2019-02-18T07:17:29.824Z,985.09
2019-02-18T07:18:29.805Z,985.13
2019-02-18T07:19:29.795Z,985.20
2019-02-18T07:20:29.796Z,985.19
2019-02-18T07:21:29.782Z,985.13
2019-02-18T07:22:29.782Z,985.18
2019-02-18T07:23:29.758Z,985.18
2019-02-18T07:24:29.739Z,985.24
2019-02-18T07:25:29.732Z,985.15
2019-02-18T07:26:29.720Z,985.13
2019-02-18T07:27:29.710Z,985.20
2019-02-18T07:28:29.729Z,985.24
2019-02-18T07:29:29.687Z,985.14
2019-02-18T07:30:29.678Z,985.15
2019-02-18T07:31:29.668Z,985.14
2019-02-18T07:32:29.655Z,985.18
2019-02-18T07:33:29.659Z,985.14
2019-02-18T07:34:29.649Z,985.11
2019-02-18T07:35:29.625Z,985.14
2019-02-18T07:36:29.613Z,985.11
2019-02-18T07:37:29.602Z,985.09
2019-02-18T07:38:29.594Z,985.18
2019-02-18T07:39:29.585Z,985.09
2019-02-18T07:40:29.585Z,985.15
2019-02-18T07:41:29.569Z,985.11
2019-02-18T07:42:29.557Z,985.18
2019-02-18T07:43:29.541Z,985.19
2019-02-18T07:44:29.529Z,985.18
2019-02-18T07:45:29.517Z,985.13
2019-02-18T07:46:29.523Z,985.19
2019-02-18T07:47:29.494Z,985.13
2019-02-18T07:48:29.485Z,985.17
2019-02-18T07:49:29.472Z,985.12
2019-02-18T07:50:29.533Z,985.15
2019-02-18T07:51:29.459Z,985.14
2019-02-18T07:52:29.456Z,985.13
2019-02-18T07:53:29.430Z,985.12
2019-02-18T07:54:29.421Z,985.09
2019-02-18T07:55:29.411Z,985.06
2019-02-18T07:56:29.400Z,985.11
2019-02-18T07:57:29.387Z,985.05
2019-02-18T07:58:29.392Z,985.03
2019-02-18T07:59:29.364Z,985.03
2019-02-18T08:00:29.357Z,985.04
2019-02-18T08:01:29.351Z,985.03
2019-02-18T08:02:29.333Z,985.06
2019-02-18T08:03:29.324Z,985.02
2019-02-18T08:04:29.330Z,985.02
2019-02-18T08:05:29.299Z,984.98
2019-02-18T08:06:29.289Z,985.07
2019-02-18T08:07:29.279Z,985.10
2019-02-18T08:08:29.269Z,984.93
2019-02-18T08:09:29.260Z,985.00
2019-02-18T08:10:29.263Z,984.98
2019-02-18T08:11:29.241Z,985.01
2019-02-18T08:12:29.228Z,984.91
2019-02-18T08:13:29.215Z,984.95
2019-02-18T08:14:29.215Z,984.90
2019-02-18T08:15:29.193Z,984.91
2019-02-18T08:16:29.202Z,984.97
2019-02-18T08:17:29.170Z,984.96
2019-02-18T08:18:29.163Z,984.99
2019-02-18T08:19:29.154Z,984.90
2019-02-18T08:20:29.141Z,984.93
2019-02-18T08:21:29.146Z,984.91
2019-02-18T08:22:29.141Z,985.00
2019-02-18T08:23:29.115Z,984.87
2019-02-18T08:24:29.096Z,984.87
2019-02-18T08:25:29.093Z,984.84
2019-02-18T08:26:29.081Z,984.85
2019-02-18T08:27:29.064Z,984.87
2019-02-18T08:28:29.071Z,984.88
2019-02-18T08:29:29.045Z,984.86
2019-02-18T08:30:29.034Z,984.92
2019-02-18T08:31:29.022Z,984.88
2019-02-18T08:32:29.009Z,984.82
2019-02-18T08:33:29.000Z,984.81
2019-02-18T08:34:29.004Z,984.85
2019-02-18T08:35:28.978Z,984.79
2019-02-18T08:36:28.968Z,984.78
2019-02-18T08:37:30.330Z,984.77
2019-02-18T08:38:28.946Z,984.77
2019-02-18T08:39:28.987Z,984.80
2019-02-18T08:40:28.939Z,984.74
2019-02-18T08:41:28.913Z,984.80
2019-02-18T08:42:28.905Z,984.78
2019-02-18T08:43:28.894Z,984.72
2019-02-18T08:44:28.884Z,984.66
2019-02-18T08:45:28.868Z,984.63
2019-02-18T08:46:28.876Z,984.62
2019-02-18T08:47:28.850Z,984.70
2019-02-18T08:48:28.840Z,984.63
2019-02-18T08:49:28.833Z,984.67
2019-02-18T08:50:28.814Z,984.67
2019-02-18T08:51:28.805Z,984.60
2019-02-18T08:52:28.808Z,984.65
2019-02-18T08:53:28.782Z,984.63
2019-02-18T08:54:28.772Z,984.70
2019-02-18T08:55:28.763Z,984.64
2019-02-18T08:56:28.751Z,984.69
2019-02-18T08:57:28.743Z,984.66
2019-02-18T08:58:28.767Z,984.68
2019-02-18T08:59:28.726Z,984.67
2019-02-18T09:00:28.701Z,984.63
2019-02-18T09:01:28.697Z,984.64
2019-02-18T09:02:28.687Z,984.64
2019-02-18T09:03:28.675Z,984.67
2019-02-18T09:04:28.704Z,984.63
2019-02-18T09:05:28.656Z,984.66
2019-02-18T09:06:28.646Z,984.62
2019-02-18T09:07:28.633Z,984.62
2019-02-18T09:08:28.624Z,984.59
2019-02-18T09:09:28.610Z,984.68
2019-02-18T09:10:33.690Z,984.64
2019-02-18T09:11:29.587Z,984.62
2019-02-18T09:12:28.582Z,984.68
2019-02-18T09:13:28.570Z,984.64
2019-02-18T09:14:28.557Z,984.66
2019-02-18T09:15:28.547Z,984.60
2019-02-18T09:16:28.566Z,984.50
2019-02-18T09:17:28.525Z,984.55
2019-02-18T09:18:28.515Z,984.54
2019-02-18T09:19:28.503Z,984.61
2019-02-18T09:20:28.496Z,984.50
2019-02-18T09:21:28.484Z,984.53
2019-02-18T09:22:28.491Z,984.60
2019-02-18T09:23:28.465Z,984.53
2019-02-18T09:24:28.451Z,984.54
2019-02-18T09:25:28.443Z,984.46
2019-02-18T09:26:28.429Z,984.45
2019-02-18T09:27:28.419Z,984.45
2019-02-18T09:28:28.426Z,984.51
2019-02-18T09:29:28.394Z,984.47
2019-02-18T09:30:28.387Z,984.38
2019-02-18T09:31:28.374Z,984.40
2019-02-18T09:32:28.365Z,984.39
2019-02-18T09:33:28.355Z,984.39
2019-02-18T09:34:28.358Z,984.41
2019-02-18T09:35:28.330Z,984.35
2019-02-18T09:36:28.323Z,984.34
2019-02-18T09:37:28.314Z,984.36
2019-02-18T09:38:28.301Z,984.32
2019-02-18T09:39:31.452Z,984.28
2019-02-18T09:40:28.291Z,984.27
2019-02-18T09:41:28.272Z,984.23
2019-02-18T09:42:28.256Z,984.26
2019-02-18T09:43:28.250Z,984.26
2019-02-18T09:44:28.234Z,984.27
2019-02-18T09:45:28.228Z,984.18
2019-02-18T09:46:28.234Z,984.17
2019-02-18T09:47:28.205Z,984.17
2019-02-18T09:48:28.192Z,984.11
2019-02-18T09:49:28.183Z,984.18
2019-02-18T09:50:28.170Z,984.11
2019-02-18T09:51:28.160Z,984.15
2019-02-18T09:52:28.163Z,984.14
2019-02-18T09:53:28.138Z,984.14
2019-02-18T09:54:28.129Z,984.14
2019-02-18T09:55:28.115Z,984.10
2019-02-18T09:56:28.106Z,984.12
2019-02-18T09:57:28.097Z,984.10
2019-02-18T09:58:28.105Z,984.09
2019-02-18T09:59:28.078Z,984.14
2019-02-18T10:00:28.061Z,984.18
2019-02-18T10:01:28.058Z,984.14
2019-02-18T10:02:28.042Z,984.09
2019-02-18T10:03:31.987Z,984.12
2019-02-18T10:04:28.154Z,984.12
2019-02-18T10:05:28.010Z,984.14
2019-02-18T10:06:27.998Z,984.13
2019-02-18T10:07:27.988Z,984.10
2019-02-18T10:08:27.978Z,984.04
2019-02-18T10:09:27.968Z,984.08
2019-02-18T10:10:27.969Z,984.05
2019-02-18T10:11:27.943Z,984.04
2019-02-18T10:12:27.934Z,984.04
2019-02-18T10:13:27.923Z,983.99
2019-02-18T10:14:27.912Z,984.01
2019-02-18T10:15:27.899Z,984.00
2019-02-18T10:16:27.902Z,984.02
2019-02-18T10:17:27.949Z,983.96
2019-02-18T10:18:27.869Z,983.98
2019-02-18T10:19:27.861Z,983.98
2019-02-18T10:20:27.851Z,983.96
2019-02-18T10:21:27.839Z,983.96
2019-02-18T10:22:27.845Z,983.98
2019-02-18T10:23:27.817Z,983.98
2019-02-18T10:24:27.807Z,983.97
2019-02-18T10:25:27.793Z,983.91
2019-02-18T10:26:27.784Z,983.94
2019-02-18T10:27:27.773Z,983.93
2019-02-18T10:28:27.781Z,983.90
2019-02-18T10:29:27.758Z,983.95
2019-02-18T10:30:27.741Z,983.94
2019-02-18T10:31:27.733Z,983.89
2019-02-18T10:32:27.717Z,983.89
2019-02-18T10:33:27.710Z,983.87
2019-02-18T10:34:27.711Z,983.84
2019-02-18T10:35:27.686Z,983.81
2019-02-18T10:36:27.676Z,983.83
2019-02-18T10:37:27.663Z,983.78
2019-02-18T10:38:27.653Z,983.80
2019-02-18T10:39:27.647Z,983.78
2019-02-18T10:40:27.653Z,983.77
2019-02-18T10:41:27.622Z,983.73
2019-02-18T10:42:27.614Z,983.64
2019-02-18T10:43:32.449Z,983.68
2019-02-18T10:44:28.597Z,983.71
2019-02-18T10:45:27.574Z,983.68
2019-02-18T10:46:27.580Z,983.66
2019-02-18T10:47:27.557Z,983.65
2019-02-18T10:48:27.548Z,983.61
2019-02-18T10:49:27.535Z,983.61
2019-02-18T10:50:27.525Z,983.65
2019-02-18T10:51:27.511Z,983.68
2019-02-18T10:52:27.518Z,983.62
2019-02-18T10:53:27.492Z,983.54
2019-02-18T10:54:27.480Z,983.52
2019-02-18T10:55:27.473Z,983.58
2019-02-18T10:56:27.460Z,983.54
2019-02-18T10:57:27.447Z,983.52
2019-02-18T10:58:27.454Z,983.52
2019-02-18T10:59:27.425Z,983.52
2019-02-18T11:00:27.416Z,983.49
2019-02-18T11:01:27.405Z,983.47
2019-02-18T11:02:27.393Z,983.45
2019-02-18T11:03:27.383Z,983.42
2019-02-18T11:04:27.384Z,983.43
2019-02-18T11:05:27.364Z,983.38
2019-02-18T11:06:27.349Z,983.44
2019-02-18T11:07:27.339Z,983.38
2019-02-18T11:08:27.331Z,983.32
2019-02-18T11:09:27.318Z,983.34
2019-02-18T11:10:27.330Z,983.33
2019-02-18T11:11:27.298Z,983.34
2019-02-18T11:12:27.288Z,983.24
2019-02-18T11:13:27.539Z,983.26
2019-02-18T11:14:27.263Z,983.27
2019-02-18T11:15:27.257Z,983.28
2019-02-18T11:16:27.260Z,983.24
2019-02-18T11:17:27.234Z,983.22
2019-02-18T11:18:27.218Z,983.26
2019-02-18T11:19:27.216Z,983.28
2019-02-18T11:20:27.200Z,983.26
2019-02-18T11:21:27.220Z,983.20
2019-02-18T11:22:27.215Z,983.25
2019-02-18T11:23:27.170Z,983.22
2019-02-18T11:24:27.157Z,983.17
2019-02-18T11:25:27.148Z,983.14
2019-02-18T11:26:27.137Z,983.11
2019-02-18T11:27:27.125Z,983.09
2019-02-18T11:28:27.128Z,983.07
2019-02-18T11:29:27.105Z,983.10
2019-02-18T11:30:27.093Z,983.05
2019-02-18T11:31:27.086Z,982.97
2019-02-18T11:32:27.083Z,983.00
2019-02-18T11:33:27.061Z,982.99
2019-02-18T11:34:27.067Z,982.97
2019-02-18T11:35:27.041Z,982.91
2019-02-18T11:36:27.029Z,982.99
2019-02-18T11:37:27.021Z,982.96
2019-02-18T11:38:27.013Z,982.98
2019-02-18T11:39:26.996Z,982.89
2019-02-18T11:40:27.003Z,982.89
2019-02-18T11:41:27.749Z,982.86
2019-02-18T11:42:26.971Z,982.89
2019-02-18T11:43:26.964Z,982.86
2019-02-18T11:44:26.945Z,982.81
2019-02-18T11:45:26.935Z,982.89
2019-02-18T11:46:26.942Z,982.84
2019-02-18T11:47:26.914Z,982.83
2019-02-18T11:48:26.902Z,982.80
2019-02-18T11:49:26.893Z,982.77
2019-02-18T11:50:26.881Z,982.77
2019-02-18T11:51:26.874Z,982.83
2019-02-18T11:52:26.878Z,982.75
2019-02-18T11:53:26.849Z,982.77
2019-02-18T11:54:26.841Z,982.75
2019-02-18T11:55:26.823Z,982.72
2019-02-18T11:56:26.814Z,982.62
2019-02-18T11:57:26.807Z,982.64
2019-02-18T11:58:26.813Z,982.66
2019-02-18T11:59:26.786Z,982.62
2019-02-18T12:00:26.772Z,982.56
2019-02-18T12:01:28.412Z,982.62
2019-02-18T12:02:26.757Z,982.56
2019-02-18T12:03:26.739Z,982.58
2019-02-18T12:04:26.745Z,982.57
2019-02-18T12:05:26.720Z,982.54
2019-02-18T12:06:26.706Z,982.47
2019-02-18T12:07:26.698Z,982.51
2019-02-18T12:08:26.702Z,982.49
2019-02-18T12:09:26.676Z,982.47
2019-02-18T12:10:26.681Z,982.47
2019-02-18T12:11:26.753Z,982.49
2019-02-18T12:12:26.647Z,982.45
2019-02-18T12:13:26.633Z,982.45
2019-02-18T12:14:27.442Z,982.41
2019-02-18T12:15:33.663Z,982.36
2019-02-18T12:16:26.602Z,982.40
2019-02-18T12:17:26.588Z,982.33
2019-02-18T12:18:26.579Z,982.30
2019-02-18T12:19:26.566Z,982.39
2019-02-18T12:20:26.556Z,982.38
2019-02-18T12:21:26.579Z,982.37
2019-02-18T12:22:26.585Z,982.32
2019-02-18T12:23:26.545Z,982.37
2019-02-18T12:24:26.513Z,982.30
2019-02-18T12:25:26.505Z,982.28
2019-02-18T12:26:26.513Z,982.28
2019-02-18T12:27:26.530Z,982.19
2019-02-18T12:28:26.470Z,982.16